Time;durP1;ratioP1;P1;durP2;ratioP2;P2;SDS_P1;SDS_P2;PMS_P1;PMS_P2;Temp;Humidity;BMP_temperature;BMP_pressure;BME280_temperature;BME280_humidity;BME280_pressure;Samples;Min_cycle;Max_cycle;Signal;HPM_P1;HPM_P2
2023/08/11 00:01:52;;;;;;;5.53;4.80;;;;;;;17.70;100.00;101958.22;10496283;28;20025;-70
2023/08/11 00:06:52;;;;;;;6.78;5.45;;;;;;;17.66;100.00;101941.38;10494794;28;20514;-70
2023/08/11 00:11:53;;;;;;;6.50;5.03;;;;;;;17.61;100.00;101941.19;10497429;28;20037;-71
2023/08/11 00:16:53;;;;;;;5.18;4.68;;;;;;;17.56;100.00;101944.59;10503680;28;20082;-70
2023/08/11 00:21:54;;;;;;;7.30;5.57;;;;;;;17.49;100.00;101943.81;10503307;28;20024;-70
2023/08/11 00:26:54;;;;;;;5.45;4.57;;;;;;;17.40;100.00;101928.69;10503826;28;20051;-70
2023/08/11 00:31:54;;;;;;;4.57;4.13;;;;;;;17.32;100.00;101921.53;10501987;28;20054;-70
2023/08/11 00:36:55;;;;;;;9.10;5.07;;;;;;;17.26;100.00;101921.56;10501152;28;20075;-70
2023/08/11 00:41:55;;;;;;;12.90;5.22;;;;;;;17.17;100.00;101923.72;10501532;28;20036;-70
2023/08/11 00:46:56;;;;;;;6.32;4.72;;;;;;;17.11;100.00;101921.84;10503239;28;20059;-74
2023/08/11 00:51:57;;;;;;;5.05;4.65;;;;;;;17.07;100.00;101906.91;10502109;28;20035;-73
2023/08/11 00:56:57;;;;;;;5.32;4.82;;;;;;;17.07;100.00;101918.72;10502623;28;20047;-74
2023/08/11 01:01:58;;;;;;;5.43;4.95;;;;;;;16.95;100.00;101909.47;10517827;28;20032;-74
2023/08/11 01:07:21;;;;;;;7.75;5.15;;;;;;;16.94;100.00;101910.53;10501518;28;20044;-74
2023/08/11 01:12:25;;;;;;;12.40;4.75;;;;;;;16.88;100.00;101914.97;10503106;28;20111;-74
2023/08/11 01:17:26;;;;;;;5.28;4.63;;;;;;;16.80;100.00;101917.94;10502473;28;20448;-74
2023/08/11 01:22:28;;;;;;;7.85;5.80;;;;;;;16.82;100.00;101907.63;10500707;28;20025;-74
2023/08/11 01:27:28;;;;;;;4.72;4.32;;;;;;;16.79;100.00;101899.84;10502064;28;20043;-73
2023/08/11 01:32:29;;;;;;;8.85;5.53;;;;;;;16.71;100.00;101891.81;10503397;28;20033;-74
2023/08/11 01:37:30;;;;;;;6.45;5.85;;;;;;;16.68;100.00;101887.63;10502634;28;20452;-73
2023/08/11 01:42:31;;;;;;;9.20;5.47;;;;;;;16.69;100.00;101888.50;10501536;28;20433;-74
2023/08/11 01:47:31;;;;;;;6.88;5.97;;;;;;;16.81;100.00;101892.25;10500565;28;20135;-74
2023/08/11 01:52:33;;;;;;;6.68;5.60;;;;;;;16.95;100.00;101885.69;10516380;28;20154;-74
2023/08/11 01:57:34;;;;;;;6.72;5.70;;;;;;;17.08;100.00;101898.50;10500100;28;20135;-74
2023/08/11 02:02:34;;;;;;;5.30;4.80;;;;;;;17.26;100.00;101899.66;10481922;28;20025;-74
2023/08/11 02:07:35;;;;;;;8.23;5.13;;;;;;;17.36;100.00;101900.06;10498965;28;20036;-74
2023/08/11 02:12:36;;;;;;;6.68;5.35;;;;;;;17.42;100.00;101897.28;10499408;28;20389;-74
2023/08/11 02:17:37;;;;;;;7.53;5.00;;;;;;;17.47;100.00;101885.66;10499201;28;20039;-74
2023/08/11 02:22:38;;;;;;;7.85;5.10;;;;;;;17.48;100.00;101889.25;10481727;28;20073;-74
2023/08/11 02:27:38;;;;;;;11.90;5.57;;;;;;;17.42;100.00;101888.22;10498890;28;20041;-74
2023/08/11 02:32:39;;;;;;;6.38;5.40;;;;;;;17.40;100.00;101873.91;10498596;28;20352;-74
2023/08/11 02:37:41;;;;;;;5.00;4.28;;;;;;;17.43;100.00;101874.31;10481093;28;20028;-74
2023/08/11 02:42:45;;;;;;;5.70;5.03;;;;;;;17.56;100.00;101872.56;10497972;28;20035;-74
2023/08/11 02:47:46;;;;;;;9.27;5.40;;;;;;;17.62;100.00;101883.47;10498986;28;20102;-73
2023/08/11 02:52:46;;;;;;;14.93;5.07;;;;;;;17.63;100.00;101876.09;10499102;28;20051;-74
2023/08/11 02:57:46;;;;;;;7.35;5.00;;;;;;;17.64;100.00;101875.03;10498816;28;20058;-74
2023/08/11 03:02:47;;;;;;;13.52;4.80;;;;;;;17.59;100.00;101881.16;10499163;28;20033;-74
2023/08/11 03:07:47;;;;;;;5.07;4.55;;;;;;;17.58;100.00;101871.28;10499153;28;20506;-74
2023/08/11 03:12:48;;;;;;;14.10;4.75;;;;;;;17.52;100.00;101871.34;10496146;28;20040;-74
2023/08/11 03:17:49;;;;;;;6.40;5.38;;;;;;;17.43;100.00;101863.38;10499098;28;20036;-74
2023/08/11 03:22:49;;;;;;;9.25;4.70;;;;;;;17.36;100.00;101872.69;10498662;28;20452;-74
2023/08/11 03:27:50;;;;;;;8.38;5.45;;;;;;;17.31;100.00;101870.59;10496322;28;20593;-74
2023/08/11 03:32:51;;;;;;;5.95;4.72;;;;;;;17.31;100.00;101864.28;10497694;28;20045;-74
2023/08/11 03:37:51;;;;;;;10.82;5.68;;;;;;;17.29;100.00;101856.25;10497390;28;20040;-74
2023/08/11 03:42:53;;;;;;;8.38;4.75;;;;;;;17.25;100.00;101860.50;10497749;28;20039;-74
2023/08/11 03:47:53;;;;;;;6.72;4.88;;;;;;;17.22;100.00;101852.72;10502257;28;20083;-74
2023/08/11 03:52:53;;;;;;;9.35;4.60;;;;;;;17.22;100.00;101841.78;10505382;28;20543;-74
2023/08/11 03:57:54;;;;;;;8.95;6.03;;;;;;;17.22;100.00;101839.03;10505428;28;20044;-74
2023/08/11 04:02:54;;;;;;;7.65;6.43;;;;;;;17.19;100.00;101828.53;10487109;28;20045;-74
2023/08/11 04:07:55;;;;;;;9.63;6.32;;;;;;;17.22;100.00;101828.09;10520053;28;20391;-74
2023/08/11 04:12:55;;;;;;;5.53;4.63;;;;;;;17.20;100.00;101819.28;10503703;28;20040;-71
2023/08/11 04:17:56;;;;;;;8.35;5.68;;;;;;;17.22;100.00;101819.03;10504412;28;20468;-72
2023/08/11 04:22:56;;;;;;;10.52;6.38;;;;;;;17.21;100.00;101815.47;10502974;28;20036;-71
2023/08/11 04:27:57;;;;;;;7.13;5.30;;;;;;;17.23;100.00;101818.84;10503080;28;20119;-71
2023/08/11 04:32:57;;;;;;;12.55;6.53;;;;;;;17.25;100.00;101799.44;10503954;28;20040;-71
2023/08/11 04:37:58;;;;;;;7.28;6.35;;;;;;;17.26;100.00;101801.97;10504832;28;20051;-71
2023/08/11 04:42:59;;;;;;;11.23;7.57;;;;;;;17.28;100.00;101794.38;10504126;28;20029;-71
2023/08/11 04:48:00;;;;;;;17.33;8.13;;;;;;;17.34;100.00;101788.00;10503146;28;20059;-71
2023/08/11 04:53:00;;;;;;;9.93;7.40;;;;;;;17.47;100.00;101802.69;10503731;28;20040;-71
2023/08/11 04:58:01;;;;;;;13.05;7.65;;;;;;;17.55;100.00;101805.13;10502455;28;20040;-72
2023/08/11 05:03:02;;;;;;;13.23;8.20;;;;;;;17.65;100.00;101806.34;10501487;28;20068;-73
2023/08/11 05:08:03;;;;;;;8.77;7.35;;;;;;;17.79;100.00;101806.25;10500758;28;20043;-72
2023/08/11 05:13:04;;;;;;;10.90;8.23;;;;;;;17.88;100.00;101800.28;10504739;28;20042;-75
2023/08/11 05:18:04;;;;;;;13.27;8.75;;;;;;;18.04;100.00;101798.03;10501823;28;20079;-74
2023/08/11 05:23:05;;;;;;;15.63;8.27;;;;;;;18.21;100.00;101799.13;10502078;28;20119;-72
2023/08/11 05:28:05;;;;;;;14.95;8.48;;;;;;;18.35;100.00;101789.69;10501691;28;20040;-72
2023/08/11 05:33:06;;;;;;;12.20;8.38;;;;;;;19.04;100.00;101804.06;10501073;28;20448;-72
2023/08/11 05:38:06;;;;;;;14.82;7.75;;;;;;;20.07;100.00;101807.59;10500930;28;20029;-72
2023/08/11 05:43:06;;;;;;;13.07;8.02;;;;;;;20.78;100.00;101813.88;10502233;28;20040;-72
2023/08/11 05:48:07;;;;;;;16.30;8.13;;;;;;;21.34;100.00;101814.13;10502041;28;20478;-72
2023/08/11 05:53:07;;;;;;;7.50;6.70;;;;;;;21.81;97.93;101808.34;10499693;28;20044;-72
2023/08/11 05:58:07;;;;;;;15.13;7.13;;;;;;;22.18;95.17;101811.47;10501076;28;20064;-72
2023/08/11 06:03:08;;;;;;;11.18;7.80;;;;;;;22.66;94.78;101811.84;10499108;28;20037;-72
2023/08/11 06:08:09;;;;;;;8.80;7.90;;;;;;;23.11;94.07;101808.00;10464177;28;20048;-72
2023/08/11 06:13:09;;;;;;;8.02;6.45;;;;;;;23.43;92.36;101814.41;10500061;28;20028;-72
2023/08/11 06:18:09;;;;;;;10.93;5.88;;;;;;;23.69;87.33;101808.31;10499518;28;20043;-72
2023/08/11 06:23:10;;;;;;;9.25;7.10;;;;;;;23.82;82.94;101811.47;10498170;28;20028;-72
2023/08/11 06:28:10;;;;;;;8.15;6.95;;;;;;;24.31;82.95;101805.75;10498229;28;20110;-72
2023/08/11 06:33:10;;;;;;;13.90;8.07;;;;;;;24.51;80.70;101807.81;10498440;28;20070;-72
2023/08/11 06:38:11;;;;;;;14.48;7.45;;;;;;;24.90;78.49;101807.41;10500505;28;20054;-72
2023/08/11 06:43:11;;;;;;;13.20;6.70;;;;;;;25.13;73.85;101792.25;10499748;28;20481;-72
2023/08/11 06:48:12;;;;;;;12.50;7.28;;;;;;;25.57;77.16;101800.09;10498778;28;20063;-72
2023/08/11 06:53:12;;;;;;;10.32;5.90;;;;;;;26.37;78.49;101796.69;10498160;28;20036;-72
2023/08/11 06:58:12;;;;;;;13.32;6.22;;;;;;;27.13;79.05;101801.97;10498741;28;20078;-72
2023/08/11 07:03:13;;;;;;;6.57;5.45;;;;;;;27.35;65.97;101804.34;10497983;28;20032;-72
2023/08/11 07:08:13;;;;;;;16.40;6.80;;;;;;;27.16;66.51;101808.09;10496846;28;20041;-72
2023/08/11 07:13:14;;;;;;;13.45;6.65;;;;;;;27.80;70.74;101813.47;10496680;28;20516;-72
2023/08/11 07:18:14;;;;;;;5.90;5.38;;;;;;;28.27;65.86;101813.84;10496277;28;20032;-72
2023/08/11 07:23:16;;;;;;;7.30;4.32;;;;;;;28.67;63.69;101815.38;10496530;28;20064;-72
2023/08/11 07:28:16;;;;;;;4.97;4.53;;;;;;;29.14;64.18;101812.84;10496804;28;20161;-72
2023/08/11 07:33:16;;;;;;;9.85;4.80;;;;;;;29.26;61.60;101820.72;10496113;28;20468;-72
2023/08/11 07:38:18;;;;;;;9.65;4.85;;;;;;;29.94;64.03;101816.59;10496006;28;20064;-72
2023/08/11 07:43:18;;;;;;;4.78;4.30;;;;;;;31.05;65.47;101809.94;10497018;28;20044;-73
2023/08/11 07:48:19;;;;;;;6.05;4.82;;;;;;;31.13;57.36;101812.00;10497708;28;20060;-73
2023/08/11 07:53:19;;;;;;;8.15;5.43;;;;;;;29.41;59.20;101818.53;10497079;28;20083;-72
2023/08/11 07:58:20;;;;;;;3.80;3.50;;;;;;;30.14;59.70;101824.59;10498349;28;20028;-72
2023/08/11 08:03:20;;;;;;;7.50;4.88;;;;;;;29.68;59.02;101825.44;10495512;28;20040;-72
2023/08/11 08:08:20;;;;;;;4.22;3.75;;;;;;;29.21;59.88;101827.22;10495362;28;20040;-72
2023/08/11 08:13:21;;;;;;;11.15;3.80;;;;;;;28.09;62.90;101834.09;10497039;28;20040;-72
2023/08/11 08:18:21;;;;;;;4.57;4.15;;;;;;;29.37;61.24;101833.41;10496683;28;20036;-72
2023/08/11 08:23:22;;;;;;;11.10;4.30;;;;;;;30.84;55.73;101819.94;10497138;28;20360;-73
2023/08/11 08:28:22;;;;;;;5.53;3.80;;;;;;;29.07;58.54;101821.56;10496014;28;20039;-73
2023/08/11 08:33:23;;;;;;;6.90;4.13;;;;;;;29.08;59.82;101828.81;10498571;28;20041;-72
2023/08/11 08:38:23;;;;;;;3.25;3.05;;;;;;;30.25;59.92;101837.28;10502811;28;20020;-72
2023/08/11 08:43:24;;;;;;;4.78;4.38;;;;;;;30.15;55.16;101834.63;10502599;28;20047;-72
2023/08/11 08:48:26;;;;;;;11.18;5.50;;;;;;;29.12;58.27;101834.59;10485316;28;20056;-72
2023/08/11 08:53:26;;;;;;;10.65;4.22;;;;;;;30.28;56.21;101825.50;10501742;28;20173;-72
2023/08/11 08:58:26;;;;;;;7.80;4.40;;;;;;;31.39;55.45;101820.63;10500890;28;20169;-73
2023/08/11 09:03:30;;;;;;;13.00;4.65;;;;;;;31.86;53.98;101812.75;10503432;28;20040;-73
2023/08/11 09:08:31;;;;;;;5.47;3.92;;;;;;;31.67;53.85;101809.34;10500530;28;20036;-72
2023/08/11 09:13:32;;;;;;;4.63;4.25;;;;;;;31.46;58.25;101811.78;10501651;28;20024;-73
2023/08/11 09:18:32;;;;;;;6.78;4.30;;;;;;;32.08;52.68;101809.13;10501884;28;20033;-73
2023/08/11 09:23:33;;;;;;;3.78;3.58;;;;;;;32.45;49.82;101815.41;10499939;28;20043;-72
2023/08/11 09:28:34;;;;;;;8.13;4.38;;;;;;;31.57;50.01;101820.78;10501640;28;20036;-73
2023/08/11 09:33:34;;;;;;;7.63;4.25;;;;;;;32.58;47.54;101825.69;10501969;28;20464;-73
2023/08/11 09:38:34;;;;;;;4.28;3.58;;;;;;;32.56;52.84;101824.34;10500035;28;20032;-72
2023/08/11 09:43:35;;;;;;;4.05;3.75;;;;;;;33.16;50.13;101831.28;10500415;28;20047;-73
2023/08/11 09:48:35;;;;;;;8.35;4.13;;;;;;;32.79;50.06;101819.47;10500283;28;20063;-72
2023/08/11 09:53:39;;;;;;;4.25;3.95;;;;;;;33.72;51.31;101827.50;10499407;28;20032;-73
2023/08/11 09:58:39;;;;;;;4.30;3.90;;;;;;;34.06;50.76;101820.19;10500826;28;20032;-73
2023/08/11 10:03:42;;;;;;;6.55;3.70;;;;;;;33.90;49.04;101827.47;10499255;28;20041;-73
2023/08/11 10:08:43;;;;;;;4.53;2.85;;;;;;;33.90;48.79;101819.88;10498881;28;20418;-72
2023/08/11 10:13:43;;;;;;;5.93;2.88;;;;;;;34.05;46.31;101826.13;10481471;28;20033;-73
2023/08/11 10:18:44;;;;;;;3.45;3.15;;;;;;;34.17;48.32;101817.81;10499755;28;20112;-73
2023/08/11 10:23:44;;;;;;;3.78;3.25;;;;;;;34.23;46.34;101824.91;10497705;28;20467;-73
2023/08/11 10:28:45;;;;;;;4.75;3.47;;;;;;;33.41;47.52;101824.88;10481131;28;20078;-73
2023/08/11 10:33:49;;;;;;;5.45;3.08;;;;;;;33.49;46.17;101823.19;10498566;28;20037;-73
2023/08/11 10:39:00;;;;;;;5.90;3.73;;;;;;;32.02;48.67;101830.00;10498983;28;20488;-73
2023/08/11 10:44:01;;;;;;;21.73;3.45;;;;;;;32.14;50.54;101829.44;10498355;28;20049;-73
2023/08/11 10:49:04;;;;;;;3.33;3.03;;;;;;;33.09;47.94;101835.41;10498931;28;20049;-72
2023/08/11 10:54:11;;;;;;;2.42;2.22;;;;;;;33.43;48.65;101824.53;10497592;28;20036;-73
2023/08/11 10:59:22;;;;;;;2.78;2.58;;;;;;;33.39;47.30;101829.97;10496248;28;20095;-73
2023/08/11 11:04:26;;;;;;;8.13;3.47;;;;;;;33.79;46.98;101843.84;10496975;28;20028;-73
2023/08/11 11:09:27;;;;;;;5.63;4.57;;;;;;;32.13;50.09;101834.22;10498061;28;20108;-73
2023/08/11 11:14:28;;;;;;;3.20;2.53;;;;;;;33.05;47.32;101837.19;10497606;28;20376;-73
2023/08/11 11:19:31;;;;;;;5.03;3.00;;;;;;;33.93;47.27;101844.47;10497762;28;20120;-73
2023/08/11 11:24:32;;;;;;;6.03;2.80;;;;;;;33.84;45.77;101845.66;10480622;28;20077;-73
2023/08/11 11:29:32;;;;;;;2.47;1.95;;;;;;;33.82;42.62;101848.78;10498566;28;20171;-73
2023/08/11 11:34:36;;;;;;;5.43;2.78;;;;;;;33.45;45.67;101851.13;10479266;28;20040;-73
2023/08/11 11:39:36;;;;;;;4.72;3.00;;;;;;;33.32;46.23;101846.50;10495885;28;20036;-73
2023/08/11 11:44:37;;;;;;;5.55;3.67;;;;;;;32.71;44.72;101856.75;10495586;28;20453;-73
2023/08/11 11:49:38;;;;;;;9.00;3.00;;;;;;;32.84;45.12;101850.19;10495753;28;20118;-73
2023/08/11 11:54:39;;;;;;;9.63;3.58;;;;;;;32.61;44.91;101850.28;10496330;28;20064;-73
2023/08/11 11:59:41;;;;;;;3.08;2.35;;;;;;;32.08;46.14;101853.94;10463203;28;20032;-73
2023/08/11 12:04:45;;;;;;;2.00;1.80;;;;;;;31.54;47.78;101867.03;10495231;28;20032;-72
2023/08/11 12:09:50;;;;;;;11.23;2.58;;;;;;;31.77;47.84;101864.25;10503906;28;20032;-73
2023/08/11 12:14:51;;;;;;;2.15;1.70;;;;;;;30.78;50.09;101873.16;10504976;28;20051;-73
2023/08/11 12:19:52;;;;;;;3.20;1.67;;;;;;;30.09;51.53;101875.81;10503859;28;20048;-73
2023/08/11 12:24:53;;;;;;;3.17;2.30;;;;;;;29.05;53.78;101873.19;10503028;28;20523;-73
2023/08/11 12:29:54;;;;;;;1.70;1.60;;;;;;;28.17;56.30;101876.03;10486439;28;20085;-73
2023/08/11 12:34:54;;;;;;;2.50;2.08;;;;;;;28.94;56.84;101875.25;10504107;28;20349;-72
2023/08/11 12:39:55;;;;;;;2.53;1.95;;;;;;;28.72;57.57;101878.59;10502508;28;20131;-73
2023/08/11 12:44:56;;;;;;;2.22;2.03;;;;;;;28.09;59.10;101875.88;10502177;28;20483;-73
2023/08/11 12:49:57;;;;;;;4.18;2.65;;;;;;;28.58;59.68;101870.09;10503876;28;20063;-72
2023/08/11 12:54:58;;;;;;;4.13;2.10;;;;;;;29.37;58.61;101866.91;10501562;28;20055;-72
2023/08/11 12:59:58;;;;;;;1.50;1.50;;;;;;;29.28;56.76;101863.94;10502889;28;20124;-72
2023/08/11 13:04:59;;;;;;;5.40;1.52;;;;;;;27.78;60.21;101871.38;10486630;28;20048;-73
2023/08/11 13:10:00;;;;;;;2.17;1.60;;;;;;;27.94;62.06;101863.72;10484632;28;20047;-73
2023/08/11 13:15:00;;;;;;;3.33;2.47;;;;;;;29.42;57.97;101853.72;10501402;28;20396;-73
2023/08/11 13:20:06;;;;;;;1.48;1.25;;;;;;;29.10;57.19;101856.38;10483564;28;20040;-72
2023/08/11 13:25:07;;;;;;;4.28;2.25;;;;;;;28.04;62.06;101863.63;10501680;28;20039;-72
2023/08/11 13:30:09;;;;;;;6.80;2.15;;;;;;;28.48;61.74;101868.25;10517706;28;20400;-72
2023/08/11 13:35:10;;;;;;;1.48;1.38;;;;;;;28.20;60.12;101872.69;10500105;28;20044;-72
2023/08/11 13:40:11;;;;;;;1.30;1.27;;;;;;;27.92;61.26;101866.00;10502091;28;20380;-72
2023/08/11 13:45:11;;;;;;;4.68;1.80;;;;;;;27.45;64.89;101861.84;10501762;28;20132;-73
2023/08/11 13:50:12;;;;;;;4.18;1.30;;;;;;;28.15;63.57;101852.44;10500542;28;20056;-73
2023/08/11 13:55:13;;;;;;;6.95;2.33;;;;;;;28.27;63.95;101850.06;10500420;28;20111;-73
2023/08/11 14:00:14;;;;;;;9.63;2.42;;;;;;;27.87;63.83;101849.31;10501744;28;20033;-73
2023/08/11 14:05:15;;;;;;;4.13;2.45;;;;;;;27.95;64.28;101850.63;10499859;28;20090;-72
2023/08/11 14:10:15;;;;;;;4.53;2.72;;;;;;;27.96;64.31;101850.34;10498431;28;20040;-72
2023/08/11 14:15:16;;;;;;;2.65;2.45;;;;;;;27.30;66.30;101859.16;10482123;28;20028;-72
2023/08/11 14:20:16;;;;;;;5.28;3.08;;;;;;;27.01;68.62;101868.19;10481806;28;20127;-72
2023/08/11 14:25:17;;;;;;;7.35;2.97;;;;;;;26.54;70.59;101860.28;10498362;28;20043;-72
2023/08/11 14:30:18;;;;;;;7.20;2.17;;;;;;;26.70;70.17;101869.41;10497625;28;20040;-72
2023/08/11 14:35:18;;;;;;;5.78;2.22;;;;;;;26.11;73.24;101868.09;10499198;28;20033;-72
2023/08/11 14:40:25;;;;;;;1.70;1.60;;;;;;;25.69;75.82;101858.91;10498904;28;20449;-73
2023/08/11 14:45:25;;;;;;;1.95;1.85;;;;;;;25.60;77.22;101855.03;10498471;28;20028;-72
2023/08/11 14:50:26;;;;;;;4.88;1.77;;;;;;;25.53;77.63;101862.78;10496787;28;20064;-72
2023/08/11 14:55:27;;;;;;;2.50;1.75;;;;;;;25.13;80.11;101855.19;10496463;28;20052;-73
2023/08/11 15:00:27;;;;;;;2.35;1.77;;;;;;;25.04;81.48;101852.91;10496925;28;20116;-72
2023/08/11 15:05:28;;;;;;;2.42;1.38;;;;;;;24.95;81.13;101854.56;10497387;28;20032;-72
2023/08/11 15:10:29;;;;;;;5.38;1.90;;;;;;;24.81;83.93;101845.06;10496249;28;20472;-72
2023/08/11 15:15:29;;;;;;;2.00;1.27;;;;;;;24.77;83.08;101843.94;10497978;28;20099;-72
2023/08/11 15:20:30;;;;;;;12.15;1.95;;;;;;;24.63;84.94;101848.28;10480906;28;20039;-72
2023/08/11 15:25:30;;;;;;;0.88;0.88;;;;;;;24.61;84.97;101842.19;10498091;28;20037;-72
2023/08/11 15:30:31;;;;;;;1.38;0.90;;;;;;;24.65;85.66;101844.16;10497233;28;20079;-72
2023/08/11 15:35:31;;;;;;;1.30;1.20;;;;;;;24.32;88.97;101839.78;10496125;28;20040;-72
2023/08/11 15:40:32;;;;;;;6.30;1.48;;;;;;;24.07;91.03;101824.66;10465055;28;20452;-72
2023/08/11 15:45:32;;;;;;;3.03;1.85;;;;;;;23.96;90.61;101820.13;10510332;28;20119;-72
2023/08/11 15:50:33;;;;;;;2.30;1.17;;;;;;;24.04;91.27;101829.91;10510965;28;20071;-72
2023/08/11 15:55:33;;;;;;;7.78;2.10;;;;;;;24.10;90.16;101817.78;10510991;28;20040;-72
2023/08/11 16:00:33;;;;;;;2.78;1.88;;;;;;;24.12;89.19;101821.94;10511149;28;20123;-72
2023/08/11 16:05:34;;;;;;;4.13;1.92;;;;;;;24.13;89.93;101828.31;10509313;28;20346;-73
2023/08/11 16:10:35;;;;;;;2.83;1.83;;;;;;;23.96;92.98;101824.84;10508813;28;20506;-72
2023/08/11 16:15:36;;;;;;;4.95;2.28;;;;;;;23.89;92.94;101823.13;10492958;28;20040;-72
2023/08/11 16:20:36;;;;;;;3.83;2.35;;;;;;;23.73;95.11;101810.28;10509924;28;20467;-72
2023/08/11 16:25:37;;;;;;;0.95;0.95;;;;;;;23.68;95.08;101813.00;10509127;28;20060;-72
2023/08/11 16:30:37;;;;;;;2.38;1.73;;;;;;;23.47;99.19;101806.44;10510310;28;20035;-72
2023/08/11 16:35:38;;;;;;;7.05;2.08;;;;;;;23.38;98.81;101811.59;10510240;28;20036;-72
2023/08/11 16:40:38;;;;;;;4.32;2.60;;;;;;;23.42;98.05;101801.69;10511499;28;20067;-72
2023/08/11 16:45:39;;;;;;;3.03;1.88;;;;;;;23.41;99.54;101802.78;10475369;28;20059;-72
2023/08/11 16:50:39;;;;;;;4.10;1.90;;;;;;;23.34;99.64;101809.63;10491437;28;20189;-72
2023/08/11 16:55:40;;;;;;;2.53;1.38;;;;;;;23.15;100.00;101809.13;10503311;28;20537;-72
2023/08/11 17:00:40;;;;;;;3.13;1.98;;;;;;;23.02;100.00;101809.56;10503025;28;20039;-72
2023/08/11 17:05:41;;;;;;;1.20;1.20;;;;;;;23.01;100.00;101796.84;10502970;28;20033;-72
2023/08/11 17:10:41;;;;;;;4.22;1.63;;;;;;;22.95;100.00;101787.66;10501483;28;20468;-72
2023/08/11 17:15:42;;;;;;;5.15;2.17;;;;;;;22.81;100.00;101776.13;10500672;28;20122;-72
2023/08/11 17:20:42;;;;;;;4.35;2.03;;;;;;;22.80;100.00;101777.22;10502197;28;20044;-72
2023/08/11 17:25:43;;;;;;;1.20;1.17;;;;;;;22.80;100.00;101777.22;10502022;28;20384;-72
2023/08/11 17:30:43;;;;;;;4.65;1.70;;;;;;;22.66;100.00;101784.25;10500742;28;20099;-72
2023/08/11 17:35:44;;;;;;;2.15;1.00;;;;;;;22.66;100.00;101774.03;10501050;28;20068;-72
2023/08/11 17:40:45;;;;;;;8.30;1.40;;;;;;;22.56;100.00;101773.03;10501440;28;20119;-72
2023/08/11 17:45:45;;;;;;;1.15;1.15;;;;;;;22.51;100.00;101762.78;10503021;28;20341;-72
2023/08/11 17:50:46;;;;;;;3.85;2.30;;;;;;;22.58;100.00;101759.84;10502996;28;20076;-72
2023/08/11 17:55:46;;;;;;;3.55;3.15;;;;;;;22.58;100.00;101768.94;10484040;28;20041;-72
2023/08/11 18:00:47;;;;;;;2.08;1.80;;;;;;;22.56;99.34;101765.63;10500712;28;20037;-72
2023/08/11 18:05:47;;;;;;;4.03;2.00;;;;;;;22.50;100.00;101763.88;10482985;28;20318;-72
2023/08/11 18:10:47;;;;;;;1.58;1.48;;;;;;;22.45;100.00;101767.41;10483077;28;20474;-72
2023/08/11 18:15:48;;;;;;;1.40;1.15;;;;;;;22.39;100.00;101767.59;10501254;28;20064;-72
2023/08/11 18:20:50;;;;;;;3.60;2.35;;;;;;;22.37;100.00;101776.16;10500227;28;20024;-72
2023/08/11 18:25:50;;;;;;;2.22;2.03;;;;;;;22.24;100.00;101769.06;10499535;28;20048;-72
2023/08/11 18:30:56;;;;;;;2.10;1.77;;;;;;;22.19;100.00;101768.97;10514347;28;20044;-72
2023/08/11 18:35:57;;;;;;;1.65;1.55;;;;;;;22.12;100.00;101773.00;10499887;28;20082;-72
2023/08/11 18:40:57;;;;;;;2.13;1.90;;;;;;;22.08;100.00;101782.84;10481848;28;20036;-71
2023/08/11 18:45:58;;;;;;;2.50;2.25;;;;;;;22.02;100.00;101780.03;10482120;28;20055;-71
2023/08/11 18:50:58;;;;;;;1.92;1.83;;;;;;;21.96;100.00;101778.28;10481611;28;20465;-71
2023/08/11 18:55:58;;;;;;;4.78;1.80;;;;;;;21.94;100.00;101772.16;10499953;28;20067;-71
2023/08/11 19:00:59;;;;;;;1.67;1.58;;;;;;;21.91;100.00;101769.91;10499910;28;20037;-71
2023/08/11 19:05:59;;;;;;;3.13;1.30;;;;;;;21.90;100.00;101778.44;10497175;28;20043;-71
2023/08/11 19:11:00;;;;;;;1.85;1.40;;;;;;;21.82;100.00;101776.94;10498228;28;20041;-71
2023/08/11 19:16:00;;;;;;;3.03;1.67;;;;;;;21.74;100.00;101769.09;10497539;28;20043;-71
2023/08/11 19:21:01;;;;;;;1.67;1.58;;;;;;;21.68;100.00;101765.41;10497807;28;20036;-72
2023/08/11 19:26:01;;;;;;;4.43;1.98;;;;;;;21.62;100.00;101771.94;10497085;28;20488;-71
2023/08/11 19:31:01;;;;;;;2.50;2.30;;;;;;;21.52;100.00;101769.84;10496957;28;20472;-71
2023/08/11 19:36:02;;;;;;;4.35;2.78;;;;;;;21.47;100.00;101778.00;10497564;28;20087;-71
2023/08/11 19:41:03;;;;;;;3.92;2.30;;;;;;;21.49;100.00;101781.34;10497460;28;20042;-71
2023/08/11 19:46:04;;;;;;;2.10;1.80;;;;;;;21.52;100.00;101786.38;10496181;28;20043;-71
2023/08/11 19:51:04;;;;;;;2.58;2.25;;;;;;;21.50;100.00;101783.03;10512770;28;20051;-71
2023/08/11 19:56:05;;;;;;;2.90;1.55;;;;;;;21.45;100.00;101782.13;10479151;28;20137;-71
2023/08/11 20:01:08;;;;;;;3.33;2.33;;;;;;;21.44;100.00;101773.03;10498028;28;20036;-71
2023/08/11 20:06:08;;;;;;;5.07;2.42;;;;;;;21.38;100.00;101763.00;10497496;28;20032;-71
2023/08/11 20:11:09;;;;;;;5.43;2.45;;;;;;;21.33;100.00;101754.59;10496823;28;20036;-71
2023/08/11 20:16:09;;;;;;;2.33;2.22;;;;;;;21.24;100.00;101756.91;10480367;28;20064;-71
2023/08/11 20:21:09;;;;;;;4.55;2.28;;;;;;;21.16;100.00;101764.75;10496499;28;20388;-71
2023/08/11 20:26:10;;;;;;;5.13;2.38;;;;;;;21.09;100.00;101754.72;10497554;28;20121;-71
2023/08/11 20:31:10;;;;;;;6.30;3.70;;;;;;;21.02;100.00;101767.78;10503113;28;20044;-72
2023/08/11 20:36:11;;;;;;;6.68;2.72;;;;;;;20.99;100.00;101765.53;10503557;28;20391;-72
2023/08/11 20:41:11;;;;;;;9.18;3.05;;;;;;;20.95;100.00;101764.34;10519662;28;20036;-72
2023/08/11 20:46:11;;;;;;;3.80;2.22;;;;;;;20.84;100.00;101762.50;10504126;28;20376;-71
2023/08/11 20:51:13;;;;;;;3.40;2.70;;;;;;;20.78;100.00;101760.72;10504564;28;20059;-71
2023/08/11 20:56:13;;;;;;;3.08;2.78;;;;;;;20.71;100.00;101757.25;10503128;28;20032;-71
2023/08/11 21:01:14;;;;;;;4.72;2.97;;;;;;;20.65;100.00;101753.59;10502910;28;20031;-72
2023/08/11 21:06:14;;;;;;;8.25;3.45;;;;;;;20.61;100.00;101739.50;10502958;28;20040;-72
2023/08/11 21:11:15;;;;;;;4.65;3.47;;;;;;;20.57;100.00;101737.44;10503210;28;20410;-72
2023/08/11 21:16:15;;;;;;;5.28;3.22;;;;;;;20.48;100.00;101733.38;10503571;28;20067;-71
2023/08/11 21:21:15;;;;;;;5.40;3.70;;;;;;;20.42;100.00;101735.19;10500974;28;20456;-72
2023/08/11 21:26:16;;;;;;;12.02;3.80;;;;;;;20.41;100.00;101728.84;10502178;28;20071;-71
2023/08/11 21:31:16;;;;;;;12.85;4.20;;;;;;;20.38;100.00;101726.56;10501900;28;20059;-72
2023/08/11 21:36:16;;;;;;;10.85;4.85;;;;;;;20.29;100.00;101719.78;10501408;28;20044;-72
2023/08/11 21:41:17;;;;;;;11.05;3.53;;;;;;;20.26;100.00;101739.53;10501182;28;20097;-72
2023/08/11 21:46:17;;;;;;;7.68;3.17;;;;;;;20.23;100.00;101734.53;10501409;28;20340;-71
2023/08/11 21:51:18;;;;;;;5.15;3.10;;;;;;;20.25;100.00;101737.03;10501480;28;20045;-72
2023/08/11 21:56:18;;;;;;;3.55;2.72;;;;;;;20.24;100.00;101727.09;10500968;28;20043;-72
2023/08/11 22:01:18;;;;;;;5.95;3.22;;;;;;;20.24;100.00;101718.84;10500167;28;20039;-72
2023/08/11 22:06:19;;;;;;;7.47;2.33;;;;;;;20.20;100.00;101716.59;10501467;28;20033;-72
2023/08/11 22:11:19;;;;;;;5.07;3.08;;;;;;;20.16;100.00;101718.13;10500097;28;20032;-72
2023/08/11 22:16:20;;;;;;;7.45;3.13;;;;;;;20.13;100.00;101715.88;10498392;28;20036;-74
2023/08/11 22:21:20;;;;;;;6.45;3.10;;;;;;;20.14;100.00;101711.22;10498538;28;20039;-71
2023/08/11 22:26:20;;;;;;;8.70;3.75;;;;;;;20.12;100.00;101708.69;10498410;28;20040;-72
2023/08/11 22:31:21;;;;;;;6.07;2.67;;;;;;;20.06;100.00;101711.56;10500658;28;20321;-72
2023/08/11 22:36:21;;;;;;;4.25;2.90;;;;;;;20.00;100.00;101698.78;10499672;28;20051;-72
2023/08/11 22:41:22;;;;;;;2.42;2.28;;;;;;;19.93;100.00;101691.50;10497974;28;20094;-71
2023/08/11 22:46:22;;;;;;;3.80;2.60;;;;;;;19.90;100.00;101710.41;10499472;28;20048;-72
2023/08/11 22:51:23;;;;;;;9.43;2.72;;;;;;;19.94;100.00;101700.59;10497495;28;20146;-72